Terminal Aerodrome Forecast (TAF)

TAF

Data at: 2130 UTC 15 Dec 2018

TAF for:NVSC (Sola/Vanua Lava Arpt, --, NV) issued at 1600 UTC 15 Dec 2018
Text:TAF NVSC 151600Z 1518/1618 VRB04KT 9999 BKN020 INTER 1518/1524 9000 SHRA BKN018
Forecast period:1800 UTC 15 December 2018 to 1800 UTC 16 December 2018
Forecast type:FROM: standard forecast or significant change
Winds:variable direction winds at 5 MPH (4 knots; 2.1 m/s)
Visibility:6 or more sm (10+ km)
Ceiling:2000 feet AGL
Clouds: broken clouds at 2000 feet AGL
Text:
Forecast period:1800 UTC 15 December 2018 to 0000 UTC 16 December 2018
Forecast type:TEMPORARY: The following changes expected for less than half the time period
Visibility: 6 sm ( 9 km)
Ceiling:1800 feet AGL
Clouds: broken clouds at 1800 feet AGL
Weather:SHRA (rain showers)

TAF

Data at: 2130 UTC 15 Dec 2018

TAF for:NVSG (Longana Arpt, --, NV) issued at 1600 UTC 15 Dec 2018
Text:TAF NVSG 151600Z 1518/1618 VRB02KT 9999 SCT020
Forecast period:1800 UTC 15 December 2018 to 1800 UTC 16 December 2018
Forecast type:FROM: standard forecast or significant change
Winds:variable direction winds at 2 MPH (2 knots; 1.0 m/s)
Visibility:6 or more sm (10+ km)
Ceiling:at least 12,000 feet AGL
Clouds: scattered clouds at 2000 feet AGL
Text:PROB40 INTER 1518/1524 9000 -SHRA BKN018
Forecast period:1800 UTC 15 December 2018 to 0000 UTC 16 December 2018
Forecast type:TEMPORARY: The following changes expected for less than half the time period
Visibility: 6 sm ( 9 km)
Ceiling:1800 feet AGL
Clouds: broken clouds at 1800 feet AGL
Weather:-SHRA (light rain showers)

TAF

Data at: 2130 UTC 15 Dec 2018

TAF for:NVSS (Santo/Pekoa Intl, --, NV) issued at 1600 UTC 15 Dec 2018
Text:TAF NVSS 151600Z 1518/1618 12010KT 9999 SCT020
Forecast period:1800 UTC 15 December 2018 to 1800 UTC 16 December 2018
Forecast type:FROM: standard forecast or significant change
Winds:from the ESE (120 degrees) at 12 MPH (10 knots; 5.1 m/s)
Visibility:6 or more sm (10+ km)
Ceiling:at least 12,000 feet AGL
Clouds: scattered clouds at 2000 feet AGL
Text:PROB40 INTER 1518/1524 9000 -SHRA BKN018
Forecast period:1800 UTC 15 December 2018 to 0000 UTC 16 December 2018
Forecast type:TEMPORARY: The following changes expected for less than half the time period
Visibility: 6 sm ( 9 km)
Ceiling:1800 feet AGL
Clouds: broken clouds at 1800 feet AGL
Weather:-SHRA (light rain showers)

TAF

Data at: 2130 UTC 15 Dec 2018

TAF for:NVSL (Malekula/Lamap, --, NV) issued at 1600 UTC 15 Dec 2018
Text:TAF NVSL 151600Z 1518/1618 12005KT 9999 SCT020
Forecast period:1800 UTC 15 December 2018 to 1800 UTC 16 December 2018
Forecast type:FROM: standard forecast or significant change
Winds:from the ESE (120 degrees) at 6 MPH (5 knots; 2.6 m/s)
Visibility:6 or more sm (10+ km)
Ceiling:at least 12,000 feet AGL
Clouds: scattered clouds at 2000 feet AGL

TAF

Data at: 2130 UTC 15 Dec 2018

TAF for:NVSP (Norsup Arpt, --, NV) issued at 1600 UTC 15 Dec 2018
Text:TAF NVSP 151600Z 1518/1618 12010KT 9999 SCT020
Forecast period:1800 UTC 15 December 2018 to 1800 UTC 16 December 2018
Forecast type:FROM: standard forecast or significant change
Winds:from the ESE (120 degrees) at 12 MPH (10 knots; 5.1 m/s)
Visibility:6 or more sm (10+ km)
Ceiling:at least 12,000 feet AGL
Clouds: scattered clouds at 2000 feet AGL

TAF

Data at: 2130 UTC 15 Dec 2018

TAF for:NVVV (Efate/Bauerfield Int, --, NV) issued at 1600 UTC 15 Dec 2018
Text:TAF NVVV 151600Z 1518/1618 VRB03KT 9999 SCT020
Forecast period:1800 UTC 15 December 2018 to 1800 UTC 16 December 2018
Forecast type:FROM: standard forecast or significant change
Winds:variable direction winds at 3 MPH (3 knots; 1.5 m/s)
Visibility:6 or more sm (10+ km)
Ceiling:at least 12,000 feet AGL
Clouds: scattered clouds at 2000 feet AGL

TAF

Data at: 2130 UTC 15 Dec 2018

TAF for:NVVW (Tanna Arpt, --, NV) issued at 1600 UTC 15 Dec 2018
Text:TAF NVVW 151600Z 1518/1618 VRB04KT 9999 SCT020
Forecast period:1800 UTC 15 December 2018 to 1800 UTC 16 December 2018
Forecast type:FROM: standard forecast or significant change
Winds:variable direction winds at 5 MPH (4 knots; 2.1 m/s)
Visibility:6 or more sm (10+ km)
Ceiling:at least 12,000 feet AGL
Clouds: scattered clouds at 2000 feet AGL

TAF

Data at: 2130 UTC 15 Dec 2018

TAF for:NVVA (Aneityum/Mystery Isl, --, NV) issued at 1600 UTC 15 Dec 2018
Text:TAF NVVA 151600Z 1518/1618 VRB04KT 9999 SCT020
Forecast period:1800 UTC 15 December 2018 to 1800 UTC 16 December 2018
Forecast type:FROM: standard forecast or significant change
Winds:variable direction winds at 5 MPH (4 knots; 2.1 m/s)
Visibility:6 or more sm (10+ km)
Ceiling:at least 12,000 feet AGL
Clouds: scattered clouds at 2000 feet AGL

TAF

Data at: 2130 UTC 15 Dec 2018

TAF NVVV 151600Z 1518/1618 VRB03KT 9999 SCT020
TAF NVSC 151600Z 1518/1618 VRB04KT 9999 BKN020 INTER 1518/1524 9000 SHRA BKN018
TAF NVSG 151600Z 1518/1618 VRB02KT 9999 SCT020
  PROB40 INTER 1518/1524 9000 -SHRA BKN018
TAF NVSS 151600Z 1518/1618 12010KT 9999 SCT020
  PROB40 INTER 1518/1524 9000 -SHRA BKN018
TAF NVSL 151600Z 1518/1618 12005KT 9999 SCT020
TAF NVSP 151600Z 1518/1618 12010KT 9999 SCT020
TAF NVVW 151600Z 1518/1618 VRB04KT 9999 SCT020
TAF NVVA 151600Z 1518/1618 VRB04KT 9999 SCT020